Time;durP1;ratioP1;P1;durP2;ratioP2;P2;SDS_P1;SDS_P2;PMS_P1;PMS_P2;Temp;Humidity;BMP_temperature;BMP_pressure;BME280_temperature;BME280_humidity;BME280_pressure;Samples;Min_cycle;Max_cycle;Signal;HPM_P1;HPM_P2
2023/04/29 00:01:44;;;;;;;12.05;6.35;;;;;;;19.28;45.94;100136.91;5071120;28;20041;-64
2023/04/29 00:04:14;;;;;;;10.63;6.22;;;;;;;19.26;45.86;100142.47;5071396;28;20409;-64
2023/04/29 00:06:42;;;;;;;13.70;6.80;;;;;;;19.25;46.14;100138.06;5071242;28;20049;-64
2023/04/29 00:09:11;;;;;;;11.20;6.20;;;;;;;19.24;45.94;100133.69;5071276;28;20048;-64
2023/04/29 00:11:39;;;;;;;10.95;5.85;;;;;;;19.23;46.05;100137.38;5071122;28;20098;-63
2023/04/29 00:14:07;;;;;;;11.13;6.03;;;;;;;19.22;46.05;100135.69;5071191;28;20532;-64
2023/04/29 00:16:36;;;;;;;10.63;5.80;;;;;;;19.20;46.05;100134.97;5071363;28;20040;-64
2023/04/29 00:19:05;;;;;;;12.75;6.20;;;;;;;19.19;46.11;100127.84;5071342;28;20040;-64
2023/04/29 00:21:34;;;;;;;12.65;6.70;;;;;;;19.18;46.01;100120.75;5071256;28;20071;-64
2023/04/29 00:24:02;;;;;;;11.50;6.30;;;;;;;19.16;45.95;100125.47;5071162;28;20044;-64
2023/04/29 00:26:31;;;;;;;12.27;6.18;;;;;;;19.14;46.27;100117.50;5070886;28;20447;-63
2023/04/29 00:28:59;;;;;;;11.90;6.10;;;;;;;19.13;46.35;100117.66;5073443;28;20113;-64
2023/04/29 00:31:27;;;;;;;13.00;6.00;;;;;;;19.12;46.33;100115.97;5074897;28;20067;-64
2023/04/29 00:33:56;;;;;;;10.32;5.75;;;;;;;19.11;46.19;100111.56;5074846;28;20040;-64
2023/04/29 00:36:25;;;;;;;12.50;6.30;;;;;;;19.10;46.42;100115.25;5074739;28;20124;-64
2023/04/29 00:38:54;;;;;;;11.55;6.30;;;;;;;19.10;46.02;100115.25;5074537;28;20454;-64
2023/04/29 00:41:24;;;;;;;11.10;6.13;;;;;;;19.08;46.23;100122.66;5074562;28;20055;-64
2023/04/29 00:43:52;;;;;;;11.52;6.47;;;;;;;19.06;46.02;100120.09;5074686;28;20049;-64
2023/04/29 00:46:20;;;;;;;10.68;5.68;;;;;;;19.06;46.18;100121.97;5074675;28;20071;-64
2023/04/29 00:48:49;;;;;;;10.50;5.72;;;;;;;19.05;46.13;100122.97;5074280;28;20486;-64
2023/04/29 00:51:18;;;;;;;9.43;5.35;;;;;;;19.04;46.22;100123.97;5074469;28;20055;-64
2023/04/29 00:53:47;;;;;;;11.90;5.75;;;;;;;19.03;46.02;100127.66;5074488;28;20440;-64
2023/04/29 00:56:19;;;;;;;9.57;5.43;;;;;;;19.02;46.29;100123.28;5074351;28;20539;-64
2023/04/29 00:58:50;;;;;;;10.88;5.32;;;;;;;19.00;46.35;100120.69;5074001;28;20044;-64
2023/04/29 01:01:20;;;;;;;10.63;5.40;;;;;;;18.99;46.41;100129.81;5074166;28;20486;-64
2023/04/29 01:03:49;;;;;;;10.20;5.70;;;;;;;18.99;45.97;100126.25;5074138;28;20055;-64
2023/04/29 01:06:29;;;;;;;9.93;5.18;;;;;;;18.97;46.03;100129.09;5074043;28;20056;-63
2023/04/29 01:09:13;;;;;;;9.02;5.15;;;;;;;18.96;46.21;100127.41;5074053;28;20058;-64
2023/04/29 01:11:54;;;;;;;10.90;5.22;;;;;;;18.96;46.27;100118.44;5074124;28;20044;-64
2023/04/29 01:14:24;;;;;;;11.90;5.78;;;;;;;18.94;46.07;100126.72;5073892;28;20048;-64
2023/04/29 01:16:56;;;;;;;8.85;5.00;;;;;;;18.94;46.06;100136.66;5074232;28;20442;-64
2023/04/29 01:19:40;;;;;;;10.55;5.30;;;;;;;18.92;45.81;100130.56;5073991;28;20140;-64
2023/04/29 01:22:08;;;;;;;9.57;5.00;;;;;;;18.91;46.09;100126.13;5073918;28;20410;-64
2023/04/29 01:24:37;;;;;;;9.63;5.20;;;;;;;18.90;46.21;100127.13;5073868;28;20041;-64
2023/04/29 01:27:17;;;;;;;9.25;5.20;;;;;;;18.88;46.10;100122.75;5073729;28;20140;-63
2023/04/29 01:29:53;;;;;;;9.70;5.28;;;;;;;18.87;46.10;100118.34;5073794;28;20355;-63
2023/04/29 01:32:29;;;;;;;7.93;4.95;;;;;;;18.87;46.32;100114.78;5073590;28;20083;-64
2023/04/29 01:35:11;;;;;;;10.02;5.43;;;;;;;18.85;46.21;100120.34;5073634;28;20055;-63
2023/04/29 01:37:49;;;;;;;8.15;5.25;;;;;;;18.85;46.30;100116.78;5073473;28;20095;-64
2023/04/29 01:40:25;;;;;;;10.73;5.38;;;;;;;18.85;46.05;100116.78;5073213;28;20561;-64
2023/04/29 01:43:01;;;;;;;8.65;4.85;;;;;;;18.83;46.12;100119.66;5073615;28;20051;-64
2023/04/29 01:45:32;;;;;;;8.20;5.10;;;;;;;18.81;46.32;100116.22;5073256;28;20055;-64
2023/04/29 01:48:01;;;;;;;9.73;5.30;;;;;;;18.80;46.46;100117.22;5073264;28;20074;-63
2023/04/29 01:50:30;;;;;;;8.98;5.20;;;;;;;18.80;46.53;100119.06;5073238;28;20508;-64
2023/04/29 01:52:58;;;;;;;10.82;5.05;;;;;;;18.80;46.12;100114.53;5073389;28;20093;-64
2023/04/29 01:55:27;;;;;;;9.43;5.13;;;;;;;18.79;46.32;100111.97;5073280;28;20041;-63
2023/04/29 01:57:56;;;;;;;8.23;4.93;;;;;;;18.77;46.30;100106.72;5073323;28;20151;-63
2023/04/29 02:00:24;;;;;;;8.13;4.57;;;;;;;18.76;46.13;100113.13;5073165;28;20056;-63
2023/04/29 02:02:53;;;;;;;8.55;4.93;;;;;;;18.75;45.99;100115.97;5073362;28;20045;-63
2023/04/29 02:05:21;;;;;;;9.68;4.85;;;;;;;18.74;46.60;100114.28;5073222;28;20080;-64
2023/04/29 02:07:49;;;;;;;9.30;5.18;;;;;;;18.73;46.52;100118.00;5073002;28;20048;-64
2023/04/29 02:10:17;;;;;;;10.90;5.10;;;;;;;18.73;46.34;100118.00;5072949;28;20045;-63
2023/04/29 02:12:47;;;;;;;10.50;5.07;;;;;;;18.72;46.17;100117.13;5072942;28;20048;-63
2023/04/29 02:15:16;;;;;;;10.73;5.15;;;;;;;18.71;46.21;100115.41;5071816;28;20131;-63
2023/04/29 02:17:45;;;;;;;7.75;4.75;;;;;;;18.71;46.31;100117.25;5072996;28;20466;-63
2023/04/29 02:20:14;;;;;;;7.95;4.88;;;;;;;18.69;46.16;100111.16;5072836;28;20041;-64
2023/04/29 02:22:42;;;;;;;11.73;4.72;;;;;;;18.68;46.31;100110.31;5072769;28;20056;-63
2023/04/29 02:25:11;;;;;;;8.35;4.55;;;;;;;18.68;46.19;100114.84;5072692;28;20044;-63
2023/04/29 02:27:39;;;;;;;8.57;4.88;;;;;;;18.67;46.14;100111.31;5072654;28;20449;-64
2023/04/29 02:30:09;;;;;;;8.38;4.53;;;;;;;18.66;46.21;100112.31;5072458;28;20501;-63
2023/04/29 02:32:38;;;;;;;9.48;4.90;;;;;;;18.66;46.17;100109.59;5072536;28;20079;-64
2023/04/29 02:35:07;;;;;;;10.25;4.88;;;;;;;18.64;46.20;100105.31;5072564;28;20044;-62
2023/04/29 02:37:35;;;;;;;9.45;4.63;;;;;;;18.63;46.36;100109.88;5072320;28;20051;-62
2023/04/29 02:40:05;;;;;;;10.05;4.82;;;;;;;18.62;46.32;100100.03;5072280;28;20052;-63
2023/04/29 02:42:33;;;;;;;9.50;4.88;;;;;;;18.63;46.06;100100.94;5074433;28;20443;-63
2023/04/29 02:45:01;;;;;;;8.15;4.60;;;;;;;18.61;46.12;100103.75;5072338;28;20056;-63
2023/04/29 02:47:30;;;;;;;7.32;4.43;;;;;;;18.60;46.16;100108.31;5072201;28;20398;-63
2023/04/29 02:49:59;;;;;;;6.95;4.45;;;;;;;18.60;46.23;100091.25;5072016;28;20044;-63
2023/04/29 02:52:27;;;;;;;8.63;4.40;;;;;;;18.58;46.04;100102.19;5071611;28;20044;-63
2023/04/29 02:54:55;;;;;;;8.50;4.80;;;;;;;18.58;45.97;100090.53;5071884;28;20056;-63
2023/04/29 02:57:23;;;;;;;7.63;4.10;;;;;;;18.57;46.30;100086.16;5072241;28;20044;-63
2023/04/29 02:59:51;;;;;;;7.32;4.07;;;;;;;18.56;46.01;100087.16;5072033;28;20052;-63
2023/04/29 03:02:20;;;;;;;7.40;4.07;;;;;;;18.55;46.11;100082.75;5071980;28;20044;-63
2023/04/29 03:04:49;;;;;;;8.25;4.10;;;;;;;18.55;46.07;100090.84;5071811;28;20045;-64
2023/04/29 03:07:18;;;;;;;7.50;4.32;;;;;;;18.55;45.89;100082.75;5072147;28;20106;-67
2023/04/29 03:09:46;;;;;;;8.40;4.10;;;;;;;18.54;46.12;100094.56;5072622;28;20045;-64
2023/04/29 03:12:15;;;;;;;8.63;4.10;;;;;;;18.52;45.79;100091.13;5073621;28;20052;-64
2023/04/29 03:14:43;;;;;;;6.32;3.85;;;;;;;18.51;45.88;100086.72;5071907;28;20102;-64
2023/04/29 03:17:12;;;;;;;7.00;4.03;;;;;;;18.51;45.99;100087.56;5071878;28;20458;-63
2023/04/29 03:19:43;;;;;;;8.40;4.18;;;;;;;18.50;45.71;100093.97;5071667;28;20443;-64
2023/04/29 03:22:13;;;;;;;6.85;3.90;;;;;;;18.50;45.92;100096.69;5071989;28;20190;-64
2023/04/29 03:24:41;;;;;;;7.35;4.35;;;;;;;18.49;45.72;100092.28;5071890;28;20056;-64
2023/04/29 03:27:10;;;;;;;7.07;3.88;;;;;;;18.48;45.87;100087.03;5071835;28;20041;-64
2023/04/29 03:29:38;;;;;;;7.45;4.20;;;;;;;18.47;45.40;100085.34;5071516;28;20094;-64
2023/04/29 03:32:06;;;;;;;6.93;4.18;;;;;;;18.46;45.64;100095.28;5071632;28;20140;-63
2023/04/29 03:34:34;;;;;;;8.55;4.32;;;;;;;18.46;45.69;100099.84;5071432;28;20044;-64
2023/04/29 03:37:02;;;;;;;7.38;4.00;;;;;;;18.46;45.54;100102.53;5070953;28;20047;-63
2023/04/29 03:39:32;;;;;;;7.28;3.90;;;;;;;18.44;45.76;100102.69;5071520;28;20456;-63
2023/04/29 03:42:00;;;;;;;8.40;4.30;;;;;;;18.44;45.79;100097.28;5071538;28;20493;-63
2023/04/29 03:44:28;;;;;;;7.97;4.45;;;;;;;18.43;45.77;100105.50;5071521;28;20072;-63
2023/04/29 03:46:56;;;;;;;7.72;3.90;;;;;;;18.42;45.41;100098.41;5071165;28;20140;-64
2023/04/29 03:49:24;;;;;;;7.20;3.83;;;;;;;18.43;45.36;100097.41;5071567;28;20056;-64
2023/04/29 03:51:53;;;;;;;6.63;4.03;;;;;;;18.42;45.74;100103.81;5071458;28;20044;-64
2023/04/29 03:54:21;;;;;;;7.10;4.28;;;;;;;18.41;45.74;100112.91;5071321;28;20055;-64
2023/04/29 03:56:51;;;;;;;6.47;3.85;;;;;;;18.41;45.57;100112.91;5071244;28;20102;-63
2023/04/29 03:59:19;;;;;;;6.60;4.05;;;;;;;18.40;45.23;100113.91;5071649;28;20051;-62
2023/04/29 04:01:47;;;;;;;7.13;3.90;;;;;;;18.39;45.17;100110.34;5071672;28;20516;-63
2023/04/29 04:04:16;;;;;;;6.55;3.72;;;;;;;18.38;45.58;100108.66;5075545;28;20048;-64
2023/04/29 04:06:50;;;;;;;6.32;3.97;;;;;;;18.38;45.49;100113.22;5075393;28;20041;-64
2023/04/29 04:09:18;;;;;;;7.57;4.20;;;;;;;18.37;45.34;100117.75;5075119;28;20060;-64
2023/04/29 04:11:46;;;;;;;8.10;4.05;;;;;;;18.37;45.41;100122.31;5075214;28;20059;-63
2023/04/29 04:14:16;;;;;;;6.38;3.88;;;;;;;18.36;45.30;100126.88;5075062;28;20051;-64
2023/04/29 04:16:44;;;;;;;5.78;3.50;;;;;;;18.35;45.31;100125.16;5075081;28;20490;-63
2023/04/29 04:19:13;;;;;;;6.07;3.80;;;;;;;18.35;45.28;100130.56;5075195;28;20441;-63
2023/04/29 04:21:41;;;;;;;5.72;3.60;;;;;;;18.35;45.30;100135.13;5075186;28;20074;-64
2023/04/29 04:24:10;;;;;;;6.97;3.80;;;;;;;18.34;45.45;100136.97;5075028;28;20056;-64
2023/04/29 04:26:38;;;;;;;6.32;3.47;;;;;;;18.34;45.45;100133.41;5074885;28;20116;-64
2023/04/29 04:29:06;;;;;;;6.82;3.80;;;;;;;18.34;45.57;100128.00;5074744;28;20474;-64
2023/04/29 04:31:35;;;;;;;6.63;3.83;;;;;;;18.33;45.62;100137.09;5074943;28;20076;-64
2023/04/29 04:34:04;;;;;;;5.63;3.47;;;;;;;18.31;45.04;100132.69;5074868;28;20098;-64
2023/04/29 04:36:32;;;;;;;6.63;3.75;;;;;;;18.31;45.13;100135.38;5074761;28;20044;-64
2023/04/29 04:39:00;;;;;;;8.35;3.70;;;;;;;18.30;45.34;100130.97;5074687;28;20044;-63
2023/04/29 04:41:30;;;;;;;7.22;3.78;;;;;;;18.30;45.32;100128.28;5074536;28;20075;-63
2023/04/29 04:43:58;;;;;;;7.97;3.70;;;;;;;18.29;45.66;100121.19;5074542;28;20044;-63
2023/04/29 04:46:26;;;;;;;6.70;3.58;;;;;;;18.28;45.16;100119.47;5074362;28;20098;-64
2023/04/29 04:48:56;;;;;;;6.43;4.05;;;;;;;18.28;45.18;100124.88;5076809;28;20054;-64
2023/04/29 04:51:24;;;;;;;5.40;3.42;;;;;;;18.28;45.36;100124.03;5075304;28;20055;-64
2023/04/29 04:53:52;;;;;;;6.30;3.70;;;;;;;18.27;45.44;100123.19;5074367;28;20040;-64
2023/04/29 04:56:20;;;;;;;7.22;4.10;;;;;;;18.27;45.14;100114.22;5074354;28;20106;-64
2023/04/29 04:58:49;;;;;;;6.85;4.00;;;;;;;18.26;45.21;100118.78;5074338;28;20456;-64
2023/04/29 05:01:17;;;;;;;5.82;4.00;;;;;;;18.25;45.41;100111.69;5074237;28;20497;-63
2023/04/29 05:03:45;;;;;;;5.68;3.95;;;;;;;18.25;45.46;100116.22;5074210;28;20055;-64
2023/04/29 05:06:15;;;;;;;7.03;3.90;;;;;;;18.23;45.36;100108.25;5074193;28;20135;-64
2023/04/29 05:08:43;;;;;;;6.13;3.60;;;;;;;18.25;45.72;100116.22;5074106;28;20041;-64
2023/04/29 05:11:17;;;;;;;6.85;3.70;;;;;;;18.24;45.62;100109.97;5074111;28;20052;-64
2023/04/29 05:13:45;;;;;;;5.57;3.45;;;;;;;18.24;45.59;100106.44;5073518;28;20044;-64
2023/04/29 05:16:13;;;;;;;6.32;3.70;;;;;;;18.23;45.16;100110.94;5074070;28;20068;-64
2023/04/29 05:18:43;;;;;;;5.38;3.38;;;;;;;18.23;45.42;100110.94;5073982;28;20701;-64
2023/04/29 05:21:12;;;;;;;8.57;4.22;;;;;;;18.23;45.44;100115.50;5073785;28;20046;-63
2023/04/29 05:23:43;;;;;;;6.50;3.67;;;;;;;18.22;45.46;100117.34;5074010;28;20581;-64
2023/04/29 05:26:11;;;;;;;5.82;3.58;;;;;;;18.22;45.25;100119.19;5073847;28;20640;-64
2023/04/29 05:28:41;;;;;;;6.20;3.40;;;;;;;18.21;45.33;100112.94;5073929;28;20045;-64
2023/04/29 05:31:10;;;;;;;6.72;3.40;;;;;;;18.20;45.26;100122.03;5075617;28;20052;-63
2023/04/29 05:33:38;;;;;;;5.80;3.60;;;;;;;18.21;45.66;100122.91;5093885;28;20082;-64
2023/04/29 05:36:07;;;;;;;6.30;3.80;;;;;;;18.20;45.22;100127.44;5094116;28;20071;-64
2023/04/29 05:38:35;;;;;;;5.80;3.88;;;;;;;18.21;45.45;100131.00;5093916;28;20115;-64
2023/04/29 05:41:05;;;;;;;6.55;3.60;;;;;;;18.19;45.53;100120.34;5093733;28;20051;-63
2023/04/29 05:43:33;;;;;;;6.85;3.58;;;;;;;18.18;45.56;100129.44;5093939;28;20075;-63
2023/04/29 05:46:01;;;;;;;6.78;3.83;;;;;;;18.18;45.64;100131.28;5087181;28;20057;-63
2023/04/29 05:48:29;;;;;;;7.07;4.05;;;;;;;18.18;45.49;100134.84;5073217;28;20048;-63
2023/04/29 05:50:57;;;;;;;7.40;3.92;;;;;;;18.17;45.27;100133.13;5073462;28;20045;-64
2023/04/29 05:53:25;;;;;;;6.68;3.83;;;;;;;18.18;45.48;100136.69;5073371;28;20159;-62
2023/04/29 05:55:54;;;;;;;5.90;3.58;;;;;;;18.16;45.44;100128.75;5073166;28;20052;-64
2023/04/29 05:58:24;;;;;;;6.40;3.50;;;;;;;18.16;45.88;100127.88;5073178;28;20401;-63
2023/04/29 06:00:52;;;;;;;6.00;3.50;;;;;;;18.16;45.58;100136.00;5072881;28;20102;-63
2023/04/29 06:03:20;;;;;;;5.45;3.58;;;;;;;18.14;45.77;100128.00;5073198;28;20049;-63
2023/04/29 06:05:49;;;;;;;6.45;3.72;;;;;;;18.16;45.72;100136.84;5072929;28;20048;-63
2023/04/29 06:08:18;;;;;;;7.50;4.10;;;;;;;18.15;45.62;100129.75;5073022;28;20048;-64
2023/04/29 06:10:46;;;;;;;6.90;3.63;;;;;;;18.14;45.53;100133.41;5072937;28;20045;-63
2023/04/29 06:13:18;;;;;;;7.38;4.07;;;;;;;18.14;45.67;100133.41;5072797;28;20444;-64
2023/04/29 06:15:47;;;;;;;6.90;3.90;;;;;;;18.14;45.81;100143.34;5073140;28;20079;-64
2023/04/29 06:18:17;;;;;;;6.90;3.97;;;;;;;18.13;45.78;100142.50;5072741;28;20624;-63
2023/04/29 06:20:45;;;;;;;7.45;4.45;;;;;;;18.14;45.38;100149.59;5072773;28;20718;-64
2023/04/29 06:23:16;;;;;;;8.73;4.00;;;;;;;18.14;45.53;100151.44;5072584;28;20052;-62
2023/04/29 06:25:44;;;;;;;7.97;3.92;;;;;;;18.12;45.41;100151.59;5071741;28;20438;-63
2023/04/29 06:28:13;;;;;;;6.47;3.70;;;;;;;18.13;45.68;100150.59;5072485;28;20049;-63
2023/04/29 06:30:41;;;;;;;6.40;3.65;;;;;;;18.13;45.60;100150.59;5072588;28;20048;-63
2023/04/29 06:33:11;;;;;;;6.75;3.67;;;;;;;18.12;45.58;100146.19;5072503;28;20132;-63
2023/04/29 06:35:39;;;;;;;6.45;3.70;;;;;;;18.11;45.84;100144.50;5072458;28;20405;-62
2023/04/29 06:38:08;;;;;;;6.57;3.33;;;;;;;18.11;45.68;100144.50;5069292;28;20048;-64
2023/04/29 06:40:36;;;;;;;7.15;3.97;;;;;;;18.12;46.11;100150.75;5074390;28;20097;-64
2023/04/29 06:43:04;;;;;;;7.45;3.70;;;;;;;18.11;45.82;100149.91;5071806;28;20087;-65
2023/04/29 06:45:32;;;;;;;6.53;3.28;;;;;;;18.11;46.06;100147.19;5074548;28;20137;-61
2023/04/29 06:48:00;;;;;;;8.68;4.10;;;;;;;18.12;46.58;100150.75;5071995;28;20056;-63
2023/04/29 06:50:30;;;;;;;6.85;4.03;;;;;;;18.11;46.42;100144.50;5071886;28;20074;-63
2023/04/29 06:52:58;;;;;;;8.85;3.80;;;;;;;18.12;46.76;100145.34;5071665;28;20456;-63
2023/04/29 06:55:26;;;;;;;8.20;3.70;;;;;;;18.13;46.60;100149.75;5072056;28;20055;-63
2023/04/29 06:57:57;;;;;;;9.45;3.90;;;;;;;18.13;46.56;100152.44;5072085;28;20047;-63
2023/04/29 07:00:25;;;;;;;8.48;3.60;;;;;;;18.13;46.65;100155.16;5072200;28;20384;-63
2023/04/29 07:02:54;;;;;;;7.40;3.72;;;;;;;18.13;46.87;100153.31;5071756;28;20044;-63
2023/04/29 07:05:23;;;;;;;8.40;3.90;;;;;;;18.13;46.78;100149.75;5071901;28;20066;-64
2023/04/29 07:07:52;;;;;;;8.25;3.70;;;;;;;18.13;46.90;100158.69;5071713;28;20076;-63
2023/04/29 07:10:21;;;;;;;7.03;3.45;;;;;;;18.14;46.84;100148.75;5071738;28;20136;-63
2023/04/29 07:12:52;;;;;;;7.63;3.33;;;;;;;18.12;47.17;100146.19;5072114;28;20044;-63
2023/04/29 07:15:20;;;;;;;9.57;4.40;;;;;;;18.13;47.22;100153.31;5071665;28;20048;-63
2023/04/29 07:17:48;;;;;;;6.60;3.70;;;;;;;18.13;46.94;100147.91;5071785;28;20075;-63
2023/04/29 07:20:17;;;;;;;6.25;3.63;;;;;;;18.13;47.08;100147.91;5071524;28;20044;-64
2023/04/29 07:22:47;;;;;;;8.93;3.85;;;;;;;18.13;47.57;100152.44;5071673;28;20544;-63
2023/04/29 07:25:16;;;;;;;5.53;3.17;;;;;;;18.13;47.02;100153.31;5072155;28;20468;-62
2023/04/29 07:27:44;;;;;;;5.95;3.28;;;;;;;18.14;47.38;100149.59;5078357;28;20068;-63
2023/04/29 07:30:13;;;;;;;6.18;3.58;;;;;;;18.14;47.27;100146.06;5091753;28;20063;-64
2023/04/29 07:32:41;;;;;;;7.00;3.65;;;;;;;18.14;47.39;100149.59;5091641;28;20048;-63
2023/04/29 07:35:10;;;;;;;6.50;3.60;;;;;;;18.14;47.46;100155.00;5091929;28;20048;-63
2023/04/29 07:37:38;;;;;;;9.88;3.30;;;;;;;18.14;47.68;100160.41;5075831;28;20040;-62
2023/04/29 07:40:09;;;;;;;8.65;3.50;;;;;;;18.15;47.66;100155.88;5071482;28;20080;-63
2023/04/29 07:42:38;;;;;;;11.32;3.42;;;;;;;18.14;47.64;100155.00;5071282;28;20084;-63
2023/04/29 07:45:07;;;;;;;7.60;3.80;;;;;;;18.14;47.36;100146.91;5071268;28;20082;-62
2023/04/29 07:47:36;;;;;;;9.85;3.60;;;;;;;18.16;47.61;100150.34;5071215;28;20391;-62
2023/04/29 07:50:05;;;;;;;8.30;3.30;;;;;;;18.16;47.44;100153.03;5071480;28;20048;-62
2023/04/29 07:52:33;;;;;;;7.93;3.90;;;;;;;18.18;47.31;100156.44;5071271;28;20080;-62
2023/04/29 07:55:02;;;;;;;7.75;3.40;;;;;;;18.18;47.38;100161.84;5071354;28;20052;-62
2023/04/29 07:57:30;;;;;;;6.60;3.33;;;;;;;18.18;47.45;100153.75;5071371;28;20049;-61
2023/04/29 08:00:00;;;;;;;6.13;3.50;;;;;;;18.18;47.40;100161.84;5071184;28;20457;-62
2023/04/29 08:02:28;;;;;;;8.80;3.50;;;;;;;18.20;47.68;100164.38;5071433;28;20059;-63
2023/04/29 08:04:56;;;;;;;7.63;3.47;;;;;;;18.21;47.10;100156.13;5071354;28;20044;-61
2023/04/29 08:07:25;;;;;;;9.70;4.30;;;;;;;18.21;47.31;100161.53;5071235;28;20146;-62
2023/04/29 08:09:53;;;;;;;6.68;3.10;;;;;;;18.22;47.48;100160.53;5071207;28;20052;-61
2023/04/29 08:12:22;;;;;;;6.68;3.60;;;;;;;18.22;47.52;100168.63;5064256;28;20044;-62
2023/04/29 08:14:50;;;;;;;8.85;3.45;;;;;;;18.24;47.60;100163.97;5064616;28;20045;-65
2023/04/29 08:17:20;;;;;;;7.82;3.50;;;;;;;18.25;47.76;100164.81;5071183;28;20048;-64
2023/04/29 08:19:48;;;;;;;7.80;3.17;;;;;;;18.27;47.92;100168.22;5071191;28;20045;-64
2023/04/29 08:22:17;;;;;;;9.52;3.40;;;;;;;18.27;48.03;100171.78;5070902;28;20087;-63
2023/04/29 08:24:45;;;;;;;8.38;3.75;;;;;;;18.26;47.87;100170.06;5071019;28;20093;-64
2023/04/29 08:27:14;;;;;;;8.90;3.42;;;;;;;18.26;47.47;100170.06;5070506;28;20060;-69
2023/04/29 08:29:42;;;;;;;8.18;3.45;;;;;;;18.27;47.71;100173.63;5071627;28;20072;-63
2023/04/29 08:32:10;;;;;;;6.38;3.60;;;;;;;18.27;47.43;100174.47;5071288;28;20139;-65
2023/04/29 08:34:40;;;;;;;9.23;3.60;;;;;;;18.27;47.69;100169.06;5070826;28;20045;-66
2023/04/29 08:37:08;;;;;;;8.48;3.25;;;;;;;18.28;47.70;100176.19;5070628;28;20044;-61
2023/04/29 08:39:37;;;;;;;7.03;3.50;;;;;;;18.30;47.93;100171.47;5070634;28;20056;-62
2023/04/29 08:42:09;;;;;;;9.48;3.80;;;;;;;18.33;48.10;100169.47;5070920;28;20052;-62
2023/04/29 08:44:37;;;;;;;11.18;4.47;;;;;;;18.34;47.89;100165.81;5070360;28;20148;-63
2023/04/29 08:47:06;;;;;;;14.30;3.97;;;;;;;18.35;48.17;100162.13;5070818;28;20512;-63
2023/04/29 08:49:36;;;;;;;10.10;3.40;;;;;;;18.36;47.94;100169.22;5072212;28;20076;-63
2023/04/29 08:52:06;;;;;;;11.10;3.55;;;;;;;18.37;47.67;100165.50;5074244;28;20723;-66
2023/04/29 08:54:35;;;;;;;8.98;3.70;;;;;;;18.37;47.91;100177.16;5074612;28;20049;-66
2023/04/29 08:57:06;;;;;;;12.85;3.67;;;;;;;18.39;48.00;100177.00;5074620;28;20442;-63
2023/04/29 08:59:36;;;;;;;9.52;3.53;;;;;;;18.40;47.86;100178.72;5074452;28;20067;-64
2023/04/29 09:02:12;;;;;;;16.10;3.95;;;;;;;18.40;47.71;100176.88;5066723;28;20633;-64
2023/04/29 09:04:47;;;;;;;9.95;3.70;;;;;;;18.41;47.54;100177.72;5064212;28;20053;-63
2023/04/29 09:07:17;;;;;;;11.05;3.90;;;;;;;18.44;47.74;100177.44;5074493;28;20049;-64
2023/04/29 09:09:47;;;;;;;12.38;3.83;;;;;;;18.43;47.74;100175.72;5074455;28;20135;-62
2023/04/29 09:12:15;;;;;;;10.15;3.20;;;;;;;18.43;47.68;100182.00;5074039;28;20513;-62
2023/04/29 09:14:43;;;;;;;9.85;3.60;;;;;;;18.44;47.65;100185.56;5074276;28;20052;-62
2023/04/29 09:17:15;;;;;;;9.93;3.90;;;;;;;18.45;47.66;100187.25;5073784;28;20048;-61
2023/04/29 09:19:44;;;;;;;8.65;3.50;;;;;;;18.45;47.98;100185.41;5073817;28;20098;-64
2023/04/29 09:22:15;;;;;;;11.48;3.47;;;;;;;18.45;48.09;100188.09;5073894;28;20080;-62
2023/04/29 09:24:44;;;;;;;9.73;3.63;;;;;;;18.46;48.17;100187.09;5073734;28;20132;-65
2023/04/29 09:27:26;;;;;;;8.05;3.45;;;;;;;18.47;47.89;100182.56;5073368;28;20052;-65
2023/04/29 09:30:01;;;;;;;11.40;3.60;;;;;;;18.52;48.19;100180.25;5073481;28;20051;-73
2023/04/29 09:32:29;;;;;;;10.77;3.80;;;;;;;18.53;48.12;100184.69;5090641;28;20036;-67
2023/04/29 09:35:59;;;;;;;8.05;3.55;;;;;;;18.54;48.48;100178.28;5073247;28;20191;-68
2023/04/29 09:57:29;;;;;;;;;;;;;;;;;;;;;
2023/04/29 10:01:12;;;;;;;12.73;3.92;;;;;;;18.62;48.42;100164.03;5052218;28;20092;-69
2023/04/29 10:04:15;;;;;;;9.20;3.42;;;;;;;18.64;48.18;100168.31;5054013;28;20056;-70
2023/04/29 10:11:36;;;;;;;9.57;3.30;;;;;;;18.67;48.13;100162.63;5024107;28;20061;-69
2023/04/29 10:15:02;;;;;;;7.40;3.17;;;;;;;18.71;47.80;100158.63;5053589;28;20049;-67
2023/04/29 10:17:38;;;;;;;;;;;;;;;18.73;47.61;100159.38;5042564;28;20075;-69
2023/04/29 10:20:35;;;;;;;10.02;3.60;;;;;;;18.75;47.54;100165.47;5053320;28;19928;-69
2023/04/29 10:23:20;;;;;;;10.18;3.03;;;;;;;18.77;47.30;100158.06;5054801;28;20040;-67
2023/04/29 10:25:52;;;;;;;7.45;3.40;;;;;;;18.79;47.72;100157.91;5071420;28;20048;-66
2023/04/29 10:28:24;;;;;;;9.68;3.55;;;;;;;18.80;47.64;100157.75;5072511;28;20044;-66
2023/04/29 10:30:54;;;;;;;9.77;3.30;;;;;;;18.83;48.00;100157.47;5072793;28;20105;-66
2023/04/29 10:33:23;;;;;;;6.95;3.20;;;;;;;18.84;47.90;100153.78;5072540;28;20071;-67
2023/04/29 10:35:52;;;;;;;8.93;3.20;;;;;;;18.86;47.61;100151.78;5072597;28;20091;-67
2023/04/29 10:38:25;;;;;;;7.55;2.90;;;;;;;18.88;47.47;100154.31;5072455;28;20485;-67
2023/04/29 10:40:56;;;;;;;5.90;3.20;;;;;;;18.90;47.48;100148.75;5072391;28;20049;-66
2023/04/29 10:43:25;;;;;;;7.90;3.47;;;;;;;18.90;47.81;100140.66;5072146;28;20087;-66
2023/04/29 10:48:46;;;;;;;8.10;3.10;;;;;;;18.94;47.54;100126.72;5109466;27;20384;-67
2023/04/29 10:51:30;;;;;;;8.70;2.97;;;;;;;18.96;47.40;100113.91;5109370;28;20059;-67
2023/04/29 10:54:03;;;;;;;7.20;3.25;;;;;;;18.98;47.72;100116.44;5109026;28;20043;-63
2023/04/29 10:56:39;;;;;;;7.72;3.25;;;;;;;18.98;47.50;100111.88;5110180;28;20469;-64
2023/04/29 10:59:11;;;;;;;6.00;2.95;;;;;;;19.00;47.75;100111.72;5110598;28;20070;-68
2023/04/29 11:01:47;;;;;;;8.48;2.95;;;;;;;19.03;47.69;100114.16;5107364;28;20044;-67
2023/04/29 11:08:45;;;;;;;8.85;3.00;;;;;;;19.08;47.44;100101.03;5108139;28;20054;-63
2023/04/29 11:15:31;;;;;;;40.58;11.00;;;;;;;19.12;48.03;100097.03;5109765;28;20117;-65
2023/04/29 11:18:52;;;;;;;55.10;16.02;;;;;;;19.13;48.71;100087.91;5108638;28;20055;-70
2023/04/29 11:22:52;;;;;;;32.88;10.43;;;;;;;19.18;48.61;100085.59;5109541;28;20070;-68
2023/04/29 11:26:09;;;;;;;36.80;9.90;;;;;;;19.21;48.37;100082.63;5113191;28;20510;-65
2023/04/29 11:29:03;;;;;;;25.48;8.90;;;;;;;19.24;48.38;100082.31;5107240;28;20044;-66
2023/04/29 11:35:23;;;;;;;24.45;8.13;;;;;;;19.29;48.51;100081.81;5075696;28;20062;-70
2023/04/29 11:39:00;;;;;;;23.42;9.18;;;;;;;19.32;48.99;100086.97;5072940;28;20190;-65
2023/04/29 11:42:27;;;;;;;23.88;8.98;;;;;;;19.36;49.71;100083.78;5078147;28;20132;-66
2023/04/29 11:45:27;;;;;;;23.15;8.43;;;;;;;19.40;50.23;100074.38;5027392;28;20188;-69
2023/04/29 11:48:28;;;;;;;24.10;8.85;;;;;;;19.47;50.58;100073.75;5025192;28;20611;-66
2023/04/29 11:51:24;;;;;;;19.48;8.07;;;;;;;19.49;50.70;100077.97;5040903;28;20041;-67
2023/04/29 11:54:13;;;;;;;;;;;;;;;19.53;51.03;100073.13;5046091;28;20049;-67
2023/04/29 11:57:40;;;;;;;23.23;8.20;;;;;;;19.60;51.11;100074.25;5037533;28;19925;-66
2023/04/29 12:00:42;;;;;;;23.92;8.70;;;;;;;19.66;51.44;100079.88;5031024;28;20088;-69
2023/04/29 12:04:05;;;;;;;19.55;8.05;;;;;;;19.69;50.96;100068.78;5032545;28;20052;-66
2023/04/29 12:07:20;;;;;;;19.80;8.07;;;;;;;19.76;50.38;100066.28;5032199;28;20061;-65
2023/04/29 12:10:41;;;;;;;26.27;8.02;;;;;;;19.80;49.93;100064.97;5024182;28;20050;-68
2023/04/29 12:13:46;;;;;;;23.63;8.38;;;;;;;19.84;49.78;100069.06;5015722;28;20494;-66
2023/04/29 12:17:02;;;;;;;18.55;7.72;;;;;;;19.87;49.99;100070.59;5012352;28;20069;-66
2023/04/29 12:20:05;;;;;;;17.33;7.65;;;;;;;19.91;49.72;100062.00;5009936;28;20042;-67
2023/04/29 12:23:18;;;;;;;16.67;6.82;;;;;;;19.95;49.46;100057.97;5048428;28;20607;-67
2023/04/29 12:26:16;;;;;;;21.90;7.35;;;;;;;19.96;49.51;100059.69;5074417;28;20136;-67
2023/04/29 12:29:19;;;;;;;18.02;7.28;;;;;;;20.00;49.76;100058.38;5073692;28;20052;-67
2023/04/29 12:32:08;;;;;;;20.55;7.22;;;;;;;20.02;49.50;100053.66;5074176;28;20595;-68
2023/04/29 12:35:07;;;;;;;16.63;6.50;;;;;;;20.05;49.77;100057.03;5074152;28;20574;-67